Time;durP1;ratioP1;P1;durP2;ratioP2;P2;SDS_P1;SDS_P2;PMS_P1;PMS_P2;Temp;Humidity;BMP_temperature;BMP_pressure;BME280_temperature;BME280_humidity;BME280_pressure;Samples;Min_cycle;Max_cycle;Signal;HPM_P1;HPM_P2
2021/03/31 00:01:57;;;;;;;22.38;13.15;;;11.20;90.10;;;;;;5092995;28;20055;-73
2021/03/31 00:04:22;;;;;;;24.52;14.02;;;11.20;90.10;;;;;;5093082;28;20468;-72
2021/03/31 00:06:48;;;;;;;25.10;14.32;;;11.40;90.20;;;;;;5093265;28;20082;-72
2021/03/31 00:09:15;;;;;;;25.88;13.57;;;11.10;90.10;;;;;;5073627;28;20036;-72
2021/03/31 00:11:40;;;;;;;23.85;13.65;;;11.10;90.30;;;;;;5093017;28;20107;-73
2021/03/31 00:14:06;;;;;;;25.90;14.35;;;11.10;90.40;;;;;;5073378;28;20036;-72
2021/03/31 00:16:32;;;;;;;18.40;12.93;;;11.00;90.40;;;;;;5093038;28;20039;-72
2021/03/31 00:18:58;;;;;;;24.35;14.18;;;11.00;90.40;;;;;;5092919;28;20032;-73
2021/03/31 00:21:24;;;;;;;25.33;14.65;;;11.00;90.90;;;;;;5074972;28;20043;-72
2021/03/31 00:23:50;;;;;;;25.50;14.23;;;11.00;90.70;;;;;;5090519;28;20043;-72
2021/03/31 00:26:15;;;;;;;21.77;14.52;;;10.90;90.80;;;;;;5092153;28;20047;-73
2021/03/31 00:28:44;;;;;;;23.92;15.35;;;10.90;90.90;;;;;;5074324;28;20111;-73
2021/03/31 00:31:11;;;;;;;27.75;15.60;;;10.80;91.00;;;;;;5092407;28;20047;-73
2021/03/31 00:33:37;;;;;;;30.30;17.08;;;10.80;91.20;;;;;;5092423;28;20032;-73
2021/03/31 00:36:04;;;;;;;25.35;16.23;;;10.80;91.30;;;;;;5092586;28;20039;-73
2021/03/31 00:38:29;;;;;;;27.15;17.58;;;10.80;91.50;;;;;;5092375;28;20483;-73
2021/03/31 00:40:55;;;;;;;28.02;17.33;;;10.80;91.50;;;;;;5086255;28;20035;-73
2021/03/31 00:43:22;;;;;;;24.35;16.48;;;10.80;91.50;;;;;;5081852;28;20040;-73
2021/03/31 00:45:48;;;;;;;27.17;17.70;;;10.80;91.50;;;;;;5061647;28;20040;-71
2021/03/31 00:48:15;;;;;;;27.25;16.52;;;10.70;91.50;;;;;;5075350;28;20032;-72
2021/03/31 00:50:58;;;;;;;28.83;16.40;;;11.00;91.60;;;;;;5091712;28;20032;-72
2021/03/31 00:53:35;;;;;;;25.73;16.73;;;10.80;91.70;;;;;;5073466;28;20037;-72
2021/03/31 00:56:01;;;;;;;27.05;16.33;;;10.70;91.70;;;;;;5082626;28;20056;-75
2021/03/31 00:58:27;;;;;;;27.77;16.88;;;10.70;91.70;;;;;;5076103;28;20045;-77
2021/03/31 01:00:53;;;;;;;32.92;17.80;;;10.80;91.70;;;;;;5091189;28;20097;-77
2021/03/31 01:03:19;;;;;;;29.77;17.88;;;10.80;91.80;;;;;;5092467;28;20044;-77
2021/03/31 01:05:46;;;;;;;30.33;18.10;;;10.60;91.90;;;;;;5088020;28;20032;-77
2021/03/31 01:08:12;;;;;;;27.92;17.35;;;10.60;91.90;;;;;;5063605;28;20036;-77
2021/03/31 01:10:48;;;;;;;28.27;18.88;;;10.60;91.90;;;;;;5049975;28;20051;-77
2021/03/31 01:13:44;;;;;;;27.58;17.77;;;10.60;92.10;;;;;;5082467;28;20036;-77
2021/03/31 01:16:33;;;;;;;28.90;18.23;;;10.60;91.90;;;;;;5076785;28;20044;-77
2021/03/31 01:20:07;;;;;;;27.65;18.15;;;10.60;91.90;;;;;;5055553;28;20790;-77
2021/03/31 01:23:15;;;;;;;30.70;17.85;;;10.60;92.00;;;;;;5029113;28;20064;-77
2021/03/31 01:25:44;;;;;;;25.58;17.35;;;10.60;91.80;;;;;;5076428;28;20036;-76
2021/03/31 01:28:26;;;;;;;31.58;17.52;;;10.60;91.60;;;;;;5089763;28;22233;-76
2021/03/31 01:31:28;;;;;;;32.58;18.00;;;10.60;91.90;;;;;;5088064;28;20086;-76
2021/03/31 01:34:31;;;;;;;25.30;18.25;;;10.50;91.90;;;;;;5083350;28;20055;-76
2021/03/31 01:37:00;;;;;;;32.45;18.75;;;10.50;91.80;;;;;;5076189;28;20055;-76
2021/03/31 01:39:28;;;;;;;29.17;18.20;;;10.70;91.80;;;;;;5077887;28;20028;-76
2021/03/31 01:41:57;;;;;;;32.65;18.60;;;10.50;91.80;;;;;;5069539;28;20167;-76
2021/03/31 01:44:25;;;;;;;32.72;18.60;;;10.50;91.80;;;;;;5092808;28;20089;-77
2021/03/31 01:46:55;;;;;;;28.63;18.15;;;10.50;91.80;;;;;;5077753;28;20043;-77
2021/03/31 01:49:24;;;;;;;29.15;18.23;;;10.50;91.90;;;;;;5078605;28;20036;-77
2021/03/31 01:51:57;;;;;;;27.40;17.83;;;10.50;91.80;;;;;;5084576;28;20040;-77
2021/03/31 01:54:24;;;;;;;30.52;17.80;;;10.50;91.80;;;;;;5086502;28;20102;-77
2021/03/31 01:56:51;;;;;;;28.10;16.92;;;10.60;91.70;;;;;;5044696;28;20092;-77
2021/03/31 01:59:20;;;;;;;26.98;15.60;;;10.50;91.70;;;;;;5060726;28;20043;-76
2021/03/31 02:01:54;;;;;;;29.10;16.55;;;10.40;91.50;;;;;;5073587;28;20051;-77
2021/03/31 02:04:24;;;;;;;27.48;17.45;;;10.50;91.50;;;;;;5082123;28;20044;-76
2021/03/31 02:06:51;;;;;;;29.85;16.83;;;10.50;91.40;;;;;;5078919;28;20071;-76
2021/03/31 02:09:19;;;;;;;27.42;16.63;;;10.60;91.40;;;;;;5059905;28;20040;-76
2021/03/31 02:11:47;;;;;;;26.23;16.80;;;10.50;91.30;;;;;;5094124;28;20062;-77
2021/03/31 02:14:16;;;;;;;26.15;17.30;;;10.50;91.30;;;;;;5087493;28;20120;-77
2021/03/31 02:16:45;;;;;;;27.73;17.15;;;10.40;91.30;;;;;;5072174;28;20036;-77
2021/03/31 02:19:18;;;;;;;29.92;16.95;;;10.40;91.30;;;;;;5068395;28;20057;-77
2021/03/31 02:21:47;;;;;;;28.58;17.20;;;10.40;91.10;;;;;;5095017;28;20067;-77
2021/03/31 02:24:16;;;;;;;29.65;16.63;;;10.40;91.20;;;;;;5058990;28;20071;-77
2021/03/31 02:26:42;;;;;;;29.73;16.92;;;10.70;91.20;;;;;;5091617;28;20442;-77
2021/03/31 02:29:11;;;;;;;26.85;17.08;;;10.40;91.20;;;;;;5070872;28;20028;-76
2021/03/31 02:31:38;;;;;;;30.60;16.20;;;10.30;91.10;;;;;;5084197;28;20442;-76
2021/03/31 02:34:05;;;;;;;27.90;16.58;;;10.80;91.20;;;;;;5054172;28;20484;-76
2021/03/31 02:36:32;;;;;;;29.75;16.73;;;10.30;91.10;;;;;;5083674;28;20037;-76
2021/03/31 02:39:00;;;;;;;28.02;16.73;;;10.30;91.20;;;;;;5086305;28;20054;-75
2021/03/31 02:41:28;;;;;;;27.95;16.48;;;10.30;91.10;;;;;;5087690;28;20449;-77
2021/03/31 02:43:55;;;;;;;28.10;16.88;;;10.60;91.10;;;;;;5069517;28;20054;-77
2021/03/31 02:46:22;;;;;;;35.15;17.63;;;10.30;91.10;;;;;;5082529;28;20036;-77
2021/03/31 02:48:50;;;;;;;43.72;16.52;;;10.20;91.00;;;;;;5085268;28;20028;-77
2021/03/31 02:51:19;;;;;;;28.90;16.40;;;10.70;91.20;;;;;;5063810;28;20506;-77
2021/03/31 02:53:46;;;;;;;28.38;17.30;;;10.20;91.10;;;;;;5086092;28;20115;-77
2021/03/31 02:56:15;;;;;;;29.73;16.83;;;10.20;91.10;;;;;;5075286;28;20534;-77
2021/03/31 02:58:43;;;;;;;25.92;15.93;;;10.50;91.20;;;;;;5062984;28;20103;-77
2021/03/31 03:01:09;;;;;;;29.45;16.90;;;10.20;91.10;;;;;;5067191;28;20048;-77
2021/03/31 03:03:36;;;;;;;32.40;17.40;;;10.10;91.00;;;;;;5074464;28;20028;-77
2021/03/31 03:06:03;;;;;;;30.30;17.33;;;10.20;91.10;;;;;;5074215;28;20032;-77
2021/03/31 03:08:30;;;;;;;28.23;17.90;;;10.20;91.10;;;;;;5079917;28;20040;-77
2021/03/31 03:10:58;;;;;;;27.08;16.77;;;10.60;91.40;;;;;;5070692;28;20043;-77
2021/03/31 03:13:25;;;;;;;27.90;17.55;;;10.20;91.10;;;;;;5080203;28;20036;-76
2021/03/31 03:15:51;;;;;;;28.15;17.42;;;10.20;91.00;;;;;;5066393;28;20115;-76
2021/03/31 03:18:16;;;;;;;29.88;19.17;;;10.20;91.00;;;;;;5077327;28;20121;-76
2021/03/31 03:20:42;;;;;;;35.95;17.60;;;10.10;91.00;;;;;;5089129;28;20064;-76
2021/03/31 03:23:13;;;;;;;30.67;17.48;;;10.10;91.10;;;;;;5073809;28;20472;-76
2021/03/31 03:25:39;;;;;;;31.45;18.85;;;10.10;91.10;;;;;;5089755;28;20440;-77
2021/03/31 03:28:05;;;;;;;37.13;17.77;;;10.10;91.10;;;;;;5076465;28;20047;-77
2021/03/31 03:30:33;;;;;;;26.48;17.60;;;10.00;91.10;;;;;;5091272;28;20036;-76
2021/03/31 03:33:00;;;;;;;29.60;17.75;;;10.20;91.20;;;;;;5083566;28;20082;-76
2021/03/31 03:35:27;;;;;;;27.23;18.40;;;10.10;91.20;;;;;;5073601;28;20561;-76
2021/03/31 03:37:54;;;;;;;28.42;18.58;;;10.10;91.20;;;;;;5082099;28;20033;-77
2021/03/31 03:40:27;;;;;;;32.75;20.17;;;10.00;91.10;;;;;;5065957;28;20113;-75
2021/03/31 03:42:53;;;;;;;40.40;21.42;;;9.90;91.10;;;;;;5074180;28;20039;-75
2021/03/31 03:45:23;;;;;;;42.13;23.35;;;9.90;91.00;;;;;;5082378;28;20068;-75
2021/03/31 03:47:49;;;;;;;35.75;23.88;;;9.90;91.00;;;;;;5075695;28;20036;-75
2021/03/31 03:50:15;;;;;;;39.35;26.33;;;9.90;91.10;;;;;;5081835;28;20085;-75
2021/03/31 03:52:50;;;;;;;40.30;25.95;;;9.90;91.00;;;;;;5077620;28;20115;-75
2021/03/31 03:55:19;;;;;;;46.38;26.67;;;9.90;91.10;;;;;;5046297;28;20141;-75
2021/03/31 03:57:46;;;;;;;45.72;25.63;;;10.50;91.30;;;;;;5055092;28;20041;-75
2021/03/31 04:00:18;;;;;;;39.45;25.70;;;9.70;91.20;;;;;;5053210;28;20115;-75
2021/03/31 04:02:53;;;;;;;40.53;25.75;;;9.80;91.40;;;;;;5054607;28;20041;-75
2021/03/31 04:05:23;;;;;;;39.28;24.75;;;9.70;91.60;;;;;;5038484;28;20048;-75
2021/03/31 04:07:57;;;;;;;41.65;25.65;;;10.30;91.80;;;;;;5043765;28;20532;-75
2021/03/31 04:10:26;;;;;;;31.50;22.92;;;9.40;91.60;;;;;;5063158;28;20049;-75
2021/03/31 04:12:56;;;;;;;33.13;23.55;;;9.20;91.50;;;;;;5048543;28;20079;-76
2021/03/31 04:15:23;;;;;;;40.88;23.10;;;9.80;91.80;;;;;;5048378;28;20091;-77
2021/03/31 04:17:51;;;;;;;38.40;22.42;;;9.60;91.80;;;;;;5050227;28;20071;-78
2021/03/31 04:20:20;;;;;;;34.97;22.70;;;9.50;91.70;;;;;;5050586;28;20039;-77
2021/03/31 04:22:47;;;;;;;33.17;21.50;;;10.10;91.80;;;;;;5067656;28;20592;-77
2021/03/31 04:25:15;;;;;;;40.10;22.10;;;9.90;91.70;;;;;;5041891;28;20106;-77
2021/03/31 04:27:47;;;;;;;34.50;21.20;;;9.50;91.70;;;;;;5057833;28;20073;-77
2021/03/31 04:30:17;;;;;;;37.05;22.35;;;9.10;91.50;;;;;;5055248;28;20430;-77
2021/03/31 04:32:51;;;;;;;39.05;21.73;;;9.60;91.70;;;;;;5050106;28;20048;-77
2021/03/31 04:35:20;;;;;;;31.55;20.50;;;9.50;91.50;;;;;;5037736;28;20045;-77
2021/03/31 04:37:49;;;;;;;35.47;21.52;;;10.10;92.00;;;;;;5038057;28;20527;-77
2021/03/31 04:40:19;;;;;;;42.03;22.23;;;9.50;91.80;;;;;;5064808;28;20036;-76
2021/03/31 04:42:47;;;;;;;36.38;21.38;;;9.40;91.80;;;;;;5070557;28;20570;-76
2021/03/31 04:45:14;;;;;;;43.15;22.23;;;9.00;91.80;;;;;;5069343;28;20093;-76
2021/03/31 04:47:45;;;;;;;34.22;21.73;;;9.50;91.80;;;;;;5080357;28;20028;-76
2021/03/31 04:50:11;;;;;;;39.88;21.15;;;9.90;92.00;;;;;;5057880;28;20031;-76
2021/03/31 04:52:38;;;;;;;42.70;21.70;;;9.40;91.80;;;;;;5063277;28;20115;-76
2021/03/31 04:55:14;;;;;;;35.97;21.52;;;9.70;92.10;;;;;;5037560;28;20056;-77
2021/03/31 04:57:50;;;;;;;33.13;21.23;;;9.40;91.80;;;;;;5067015;28;20506;-75
2021/03/31 05:00:19;;;;;;;43.88;22.38;;;9.90;91.90;;;;;;5081108;28;20056;-76
2021/03/31 05:02:45;;;;;;;38.58;21.10;;;9.40;91.80;;;;;;5064082;28;20480;-76
2021/03/31 05:05:14;;;;;;;42.47;22.33;;;9.30;91.70;;;;;;5077098;28;20484;-76
2021/03/31 05:07:43;;;;;;;37.88;21.38;;;9.40;91.70;;;;;;5038394;28;20079;-75
2021/03/31 05:10:10;;;;;;;38.35;21.13;;;9.40;91.90;;;;;;5035110;28;20040;-75
2021/03/31 05:12:36;;;;;;;39.60;21.15;;;9.30;91.80;;;;;;5045653;28;20060;-75
2021/03/31 05:15:03;;;;;;;46.92;21.58;;;9.40;91.80;;;;;;5054259;28;20032;-75
2021/03/31 05:17:29;;;;;;;43.08;22.70;;;9.30;91.60;;;;;;5038126;28;20052;-75
2021/03/31 05:19:55;;;;;;;39.80;21.70;;;10.10;91.70;;;;;;5040643;28;20048;-75
2021/03/31 05:22:21;;;;;;;43.22;21.85;;;9.90;91.70;;;;;;5084549;28;20029;-75
2021/03/31 05:24:46;;;;;;;44.03;22.42;;;9.40;91.50;;;;;;5069208;28;20031;-74
2021/03/31 05:27:15;;;;;;;38.65;21.95;;;9.60;91.40;;;;;;5050121;28;20075;-77
2021/03/31 05:29:41;;;;;;;40.90;21.55;;;9.30;91.20;;;;;;5047525;28;20040;-76
2021/03/31 05:32:07;;;;;;;41.25;21.40;;;9.30;91.20;;;;;;5022650;28;20040;-76
2021/03/31 05:34:34;;;;;;;32.70;21.05;;;9.30;91.20;;;;;;5054358;28;20056;-75
2021/03/31 05:37:00;;;;;;;39.60;22.35;;;9.30;91.60;;;;;;5061786;28;20051;-73
2021/03/31 05:39:29;;;;;;;41.85;21.95;;;9.30;91.30;;;;;;5055696;28;20473;-74
2021/03/31 05:42:05;;;;;;;34.90;23.92;;;9.80;91.30;;;;;;5079334;28;20036;-72
2021/03/31 05:44:34;;;;;;;33.53;22.35;;;9.30;91.20;;;;;;5042607;28;20035;-74
2021/03/31 05:47:01;;;;;;;36.33;23.65;;;10.00;91.40;;;;;;5081835;28;20033;-73
2021/03/31 05:49:30;;;;;;;41.35;22.20;;;9.30;91.10;;;;;;5037937;28;20050;-74
2021/03/31 05:51:57;;;;;;;33.63;21.05;;;9.30;91.20;;;;;;5075513;28;20517;-73
2021/03/31 05:54:27;;;;;;;35.05;21.92;;;9.90;91.20;;;;;;5071432;28;20032;-73
2021/03/31 05:57:00;;;;;;;38.67;23.35;;;9.70;91.20;;;;;;5051858;28;20491;-76
2021/03/31 05:59:45;;;;;;;32.78;22.50;;;9.40;91.30;;;;;;5067610;28;20041;-76
2021/03/31 06:02:33;;;;;;;37.10;22.25;;;8.80;91.20;;;;;;5037550;28;20465;-76
2021/03/31 06:05:28;;;;;;;34.83;22.05;;;9.40;91.50;;;;;;5054390;28;20045;-76
2021/03/31 06:07:58;;;;;;;34.58;21.98;;;9.70;91.60;;;;;;5025941;28;20110;-75
2021/03/31 06:10:30;;;;;;;37.63;22.10;;;9.40;91.50;;;;;;5050836;28;20036;-75
2021/03/31 06:13:04;;;;;;;38.78;22.50;;;9.40;91.50;;;;;;5057736;28;20036;-74
2021/03/31 06:15:39;;;;;;;35.80;23.58;;;9.50;91.40;;;;;;5070010;28;20119;-74
2021/03/31 06:18:11;;;;;;;33.67;22.90;;;10.10;91.60;;;;;;5064403;28;20037;-73
2021/03/31 06:20:54;;;;;;;39.05;22.83;;;9.50;91.70;;;;;;5058394;28;20036;-74
2021/03/31 06:26:28;;;;;;;38.55;22.08;;;9.60;91.50;;;;;;5064306;28;20041;-73
2021/03/31 06:29:00;;;;;;;37.80;22.63;;;9.60;91.50;;;;;;5062480;28;20423;-79
2021/03/31 06:31:30;;;;;;;38.53;23.88;;;9.70;91.40;;;;;;5053801;28;20037;-79
2021/03/31 06:34:05;;;;;;;33.70;21.88;;;9.70;91.50;;;;;;5069685;28;20102;-79
2021/03/31 06:36:40;;;;;;;42.40;22.00;;;9.70;91.30;;;;;;5056278;28;20044;-79
2021/03/31 06:39:24;;;;;;;40.55;22.42;;;10.10;91.40;;;;;;5059379;28;20052;-74
2021/03/31 06:41:59;;;;;;;44.33;23.35;;;10.60;91.40;;;;;;5060597;28;20064;-73
2021/03/31 06:50:09;;;;;;;43.03;23.42;;;9.90;91.00;;;;;;5065835;28;20047;-73
2021/03/31 06:53:11;;;;;;;45.35;20.88;;;10.00;91.00;;;;;;5063886;28;20036;-74
2021/03/31 06:55:37;;;;;;;42.53;21.60;;;10.40;90.90;;;;;;5052249;28;20438;-73
2021/03/31 06:58:06;;;;;;;35.78;21.58;;;10.10;90.60;;;;;;5035434;28;20044;-72
2021/03/31 07:00:38;;;;;;;40.40;21.60;;;10.20;90.50;;;;;;5067871;28;20039;-73
2021/03/31 07:03:07;;;;;;;31.63;20.90;;;10.20;90.50;;;;;;5072351;28;20048;-73
2021/03/31 07:05:40;;;;;;;35.25;21.27;;;10.30;90.30;;;;;;5056037;28;20048;-73
2021/03/31 07:08:12;;;;;;;38.45;21.52;;;10.40;90.20;;;;;;5090637;28;20036;-73
2021/03/31 07:10:51;;;;;;;37.65;20.70;;;10.30;90.10;;;;;;5071892;28;20055;-73
2021/03/31 07:13:31;;;;;;;39.95;21.23;;;10.40;90.00;;;;;;5071364;28;20044;-73
2021/03/31 07:16:11;;;;;;;36.20;22.38;;;10.40;90.00;;;;;;5088503;28;20052;-73
2021/03/31 07:18:39;;;;;;;37.92;20.45;;;10.60;90.10;;;;;;5089895;28;20036;-73
2021/03/31 07:21:12;;;;;;;31.45;20.55;;;10.50;90.00;;;;;;5072113;28;20032;-73
2021/03/31 07:23:40;;;;;;;33.53;21.10;;;10.60;89.90;;;;;;5054851;28;20506;-77
2021/03/31 07:26:07;;;;;;;34.38;21.60;;;10.70;89.90;;;;;;5051911;28;20036;-77
2021/03/31 07:28:33;;;;;;;32.53;20.92;;;10.70;89.70;;;;;;5071563;28;20030;-76
2021/03/31 07:31:01;;;;;;;38.00;22.45;;;10.70;89.50;;;;;;5090080;28;20032;-77
2021/03/31 07:33:36;;;;;;;36.67;22.15;;;10.80;89.50;;;;;;5071252;28;20028;-77
2021/03/31 07:36:06;;;;;;;38.80;20.65;;;10.80;89.20;;;;;;5071059;28;20036;-77
2021/03/31 07:38:36;;;;;;;33.35;20.85;;;10.90;89.20;;;;;;5088104;28;20117;-76
2021/03/31 07:41:02;;;;;;;36.85;21.85;;;11.00;89.30;;;;;;5070985;28;20039;-77
2021/03/31 07:43:37;;;;;;;39.03;21.90;;;11.30;89.00;;;;;;5089212;28;20040;-76
2021/03/31 07:46:11;;;;;;;37.93;21.60;;;11.40;89.10;;;;;;5088882;28;20109;-76
2021/03/31 07:49:09;;;;;;;34.40;21.55;;;11.20;88.80;;;;;;5070961;28;20305;-78
2021/03/31 07:52:07;;;;;;;35.00;21.40;;;11.20;88.80;;;;;;5071475;28;20043;-80
2021/03/31 07:54:46;;;;;;;37.63;20.52;;;11.30;88.50;;;;;;5055204;28;20044;-81
2021/03/31 07:57:31;;;;;;;33.33;21.27;;;11.40;88.40;;;;;;5053505;28;20135;-81
2021/03/31 08:00:00;;;;;;;37.30;21.30;;;11.50;88.10;;;;;;5054989;28;20043;-72
2021/03/31 08:02:38;;;;;;;31.25;19.33;;;11.60;87.70;;;;;;5055076;28;20043;-72
2021/03/31 08:05:25;;;;;;;30.80;19.15;;;11.60;86.80;;;;;;5072293;28;20052;-73
2021/03/31 08:08:35;;;;;;;;;;;;;;;;;;;;;
2021/03/31 08:11:06;;;;;;;40.85;19.00;;;11.80;83.80;;;;;;5070685;28;20063;-73
2021/03/31 08:13:42;;;;;;;38.35;20.15;;;11.80;83.80;;;;;;5020544;28;20093;-77
2021/03/31 08:16:30;;;;;;;37.55;20.27;;;12.00;82.90;;;;;;5069780;28;20048;-76
2021/03/31 08:19:25;;;;;;;35.70;21.08;;;12.00;81.00;;;;;;5052592;28;20048;-75
2021/03/31 08:22:08;;;;;;;35.95;19.90;;;12.10;81.50;;;;;;5038367;28;20052;-76
2021/03/31 08:24:59;;;;;;;38.53;22.33;;;12.10;80.40;;;;;;5089382;28;20497;-75
2021/03/31 08:28:00;;;;;;;;;;;;;;;;;;;;;
2021/03/31 08:30:42;;;;;;;36.67;19.80;;;12.30;79.30;;;;;;5059034;28;20507;-76
2021/03/31 08:33:11;;;;;;;32.05;19.63;;;12.50;78.60;;;;;;5054084;28;20395;-77
2021/03/31 08:35:44;;;;;;;37.35;21.33;;;12.30;78.20;;;;;;5088104;28;20437;-76
2021/03/31 08:38:16;;;;;;;33.70;21.17;;;13.10;78.10;;;;;;5071578;28;20078;-76
2021/03/31 08:40:42;;;;;;;38.90;20.70;;;12.90;78.00;;;;;;5088189;28;20448;-76
2021/03/31 08:43:18;;;;;;;37.42;20.13;;;12.70;77.90;;;;;;5087822;28;20031;-77
2021/03/31 08:45:52;;;;;;;36.05;20.13;;;12.80;78.00;;;;;;5088421;28;20766;-76
2021/03/31 08:48:36;;;;;;;34.00;20.88;;;12.90;78.30;;;;;;5070242;28;20159;-76
2021/03/31 08:51:12;;;;;;;37.08;22.02;;;12.90;77.80;;;;;;5088190;28;20046;-77
2021/03/31 08:53:46;;;;;;;38.95;20.77;;;12.90;78.10;;;;;;5051606;28;20101;-76
2021/03/31 08:56:22;;;;;;;36.83;21.67;;;13.00;78.30;;;;;;5051321;28;20056;-76
2021/03/31 08:58:56;;;;;;;35.95;21.73;;;13.20;78.30;;;;;;5084358;28;20040;-77
2021/03/31 09:01:32;;;;;;;37.03;20.48;;;13.20;78.20;;;;;;5087244;28;20043;-77
2021/03/31 09:04:20;;;;;;;;;;;13.20;78.10;;;;;;5070691;28;20044;-76
2021/03/31 09:07:09;;;;;;;37.30;21.13;;;13.30;77.90;;;;;;5087614;28;20708;-79
2021/03/31 09:09:40;;;;;;;33.72;19.92;;;13.40;78.50;;;;;;5089897;28;20502;-78
2021/03/31 09:12:19;;;;;;;33.40;20.73;;;13.50;78.20;;;;;;5085499;28;20070;-80
2021/03/31 09:14:48;;;;;;;38.25;21.13;;;13.50;77.70;;;;;;5086967;28;20115;-73
2021/03/31 09:17:26;;;;;;;33.90;20.00;;;13.70;77.20;;;;;;5069308;28;20036;-73
2021/03/31 09:19:54;;;;;;;37.53;20.45;;;13.60;76.80;;;;;;5088841;28;20071;-73
2021/03/31 09:22:23;;;;;;;34.80;20.70;;;13.70;76.90;;;;;;5084460;28;20036;-73
2021/03/31 09:24:51;;;;;;;38.67;20.95;;;13.80;76.60;;;;;;5087606;28;20044;-73
2021/03/31 09:27:19;;;;;;;40.47;20.13;;;13.90;76.30;;;;;;5069871;28;20040;-73
2021/03/31 09:29:46;;;;;;;36.35;20.25;;;14.00;76.00;;;;;;5087847;28;20095;-72
2021/03/31 09:32:16;;;;;;;36.40;21.08;;;14.00;75.40;;;;;;5087141;28;20051;-73
2021/03/31 09:34:43;;;;;;;40.95;21.10;;;14.10;75.00;;;;;;5087306;28;20039;-73
2021/03/31 09:37:15;;;;;;;34.75;20.65;;;14.20;74.80;;;;;;5068594;28;20048;-73
2021/03/31 09:40:00;;;;;;;35.25;20.77;;;14.20;74.60;;;;;;5085619;28;20058;-73
2021/03/31 09:42:37;;;;;;;39.13;20.55;;;14.40;72.90;;;;;;5086232;28;20054;-75
2021/03/31 09:45:09;;;;;;;42.05;19.90;;;14.50;72.40;;;;;;5070092;28;20071;-74
2021/03/31 09:47:38;;;;;;;33.53;20.42;;;14.60;71.80;;;;;;5092202;28;20032;-75
2021/03/31 09:50:12;;;;;;;34.00;20.30;;;14.70;71.70;;;;;;5091389;28;20047;-75
2021/03/31 09:52:39;;;;;;;35.80;20.40;;;14.70;69.50;;;;;;5091626;28;20028;-75
2021/03/31 09:55:14;;;;;;;35.03;19.40;;;14.70;69.70;;;;;;5090402;28;20078;-74
2021/03/31 09:57:47;;;;;;;36.55;18.63;;;14.80;69.50;;;;;;5050212;28;20072;-75
2021/03/31 10:00:21;;;;;;;35.92;20.45;;;14.80;69.80;;;;;;5050881;28;20045;-76
2021/03/31 10:02:53;;;;;;;37.80;20.77;;;15.00;68.90;;;;;;5050631;28;20485;-72
2021/03/31 10:05:21;;;;;;;37.38;21.60;;;15.00;69.00;;;;;;5049989;28;20172;-75
2021/03/31 10:07:56;;;;;;;35.67;20.25;;;15.10;68.60;;;;;;5048935;28;20044;-74
2021/03/31 10:10:41;;;;;;;41.38;23.80;;;15.10;67.60;;;;;;5030131;28;20037;-72
2021/03/31 10:13:08;;;;;;;37.83;21.08;;;15.30;66.10;;;;;;5030974;28;20559;-72
2021/03/31 10:15:34;;;;;;;34.28;20.75;;;15.30;66.40;;;;;;5050095;28;20048;-78
2021/03/31 10:18:00;;;;;;;45.80;22.60;;;15.40;65.80;;;;;;5050526;28;20056;-77
2021/03/31 10:20:32;;;;;;;36.53;21.42;;;15.50;65.10;;;;;;5047974;28;20186;-78
2021/03/31 10:22:58;;;;;;;33.10;19.73;;;15.60;62.60;;;;;;5050432;28;20077;-78
2021/03/31 10:25:28;;;;;;;31.75;18.08;;;15.70;62.60;;;;;;5030371;28;20037;-78
2021/03/31 10:27:55;;;;;;;29.02;17.35;;;15.80;62.00;;;;;;5046744;28;20044;-73
2021/03/31 10:30:42;;;;;;;42.55;23.08;;;15.90;61.60;;;;;;5049148;28;20033;-74
2021/03/31 10:33:09;;;;;;;33.20;20.00;;;15.90;60.90;;;;;;5049442;28;20481;-73
2021/03/31 10:35:58;;;;;;;31.58;17.88;;;16.10;61.00;;;;;;5032006;28;20052;-73
2021/03/31 10:38:36;;;;;;;29.83;17.13;;;16.10;60.40;;;;;;5049505;28;20452;-73
2021/03/31 10:41:31;;;;;;;24.52;15.52;;;16.10;59.00;;;;;;5050869;28;20420;-73
2021/03/31 10:52:18;;;;;;;33.33;20.55;;;16.30;56.40;;;;;;5050397;28;20095;-73
2021/03/31 10:54:44;;;;;;;40.22;20.90;;;16.40;56.70;;;;;;5011541;28;20040;-73
2021/03/31 10:57:11;;;;;;;35.88;19.95;;;16.40;55.90;;;;;;5064330;28;20127;-73
2021/03/31 10:59:37;;;;;;;40.53;21.48;;;16.50;55.70;;;;;;5068331;28;20036;-73
2021/03/31 11:02:03;;;;;;;32.22;19.05;;;16.50;55.80;;;;;;5069073;28;20032;-73
2021/03/31 11:04:30;;;;;;;31.23;18.35;;;16.60;56.00;;;;;;5069148;28;20044;-73
2021/03/31 11:06:56;;;;;;;36.97;19.17;;;16.60;55.50;;;;;;5070333;28;20036;-73
2021/03/31 11:09:22;;;;;;;31.23;18.20;;;16.50;55.40;;;;;;5067377;28;20090;-73
2021/03/31 11:11:49;;;;;;;32.58;18.80;;;16.60;54.40;;;;;;5068086;28;20039;-73
2021/03/31 11:14:17;;;;;;;34.20;19.83;;;16.80;53.00;;;;;;5069423;28;20078;-74
2021/03/31 11:17:08;;;;;;;39.25;20.13;;;16.90;52.40;;;;;;5053504;28;20047;-75
2021/03/31 11:26:03;;;;;;;33.38;18.95;;;17.30;50.70;;;;;;5043487;28;20041;-74
2021/03/31 11:28:49;;;;;;;35.78;18.27;;;17.30;50.90;;;;;;5039697;28;20037;-74
2021/03/31 11:31:15;;;;;;;28.95;16.77;;;17.40;49.40;;;;;;5051360;28;20507;-74
2021/03/31 11:33:40;;;;;;;33.40;17.95;;;17.40;48.60;;;;;;5069890;28;20037;-74
2021/03/31 11:36:27;;;;;;;27.60;16.80;;;17.50;48.30;;;;;;5054576;28;20374;-75
2021/03/31 11:38:53;;;;;;;33.22;18.30;;;17.60;48.40;;;;;;5069482;28;20041;-75
2021/03/31 11:41:19;;;;;;;30.67;18.27;;;17.60;47.70;;;;;;5069475;28;20440;-75
2021/03/31 11:44:05;;;;;;;27.50;16.42;;;17.60;48.00;;;;;;5053889;28;20155;-75
2021/03/31 11:46:31;;;;;;;33.50;17.83;;;17.70;48.30;;;;;;5050807;28;20080;-75
2021/03/31 11:48:57;;;;;;;30.58;17.45;;;17.70;47.60;;;;;;5069390;28;20067;-75
2021/03/31 11:51:22;;;;;;;30.40;18.05;;;17.80;46.60;;;;;;5052012;28;20036;-83
2021/03/31 11:53:48;;;;;;;32.88;18.30;;;17.90;46.80;;;;;;5052813;28;20036;-83
2021/03/31 11:56:14;;;;;;;30.48;18.17;;;17.90;47.00;;;;;;5052615;28;20063;-82
2021/03/31 11:59:00;;;;;;;25.77;16.40;;;17.90;46.80;;;;;;5054997;28;20394;-82
2021/03/31 12:01:25;;;;;;;26.85;14.82;;;17.90;47.70;;;;;;5060632;28;20040;-85
2021/03/31 12:03:51;;;;;;;21.45;12.63;;;18.00;47.80;;;;;;5084928;28;20032;-84
2021/03/31 12:06:37;;;;;;;23.90;13.90;;;18.00;47.80;;;;;;5063536;28;20041;-85
2021/03/31 12:09:06;;;;;;;30.90;16.10;;;18.00;47.80;;;;;;5054014;28;20039;-85
2021/03/31 12:11:53;;;;;;;38.38;17.98;;;17.90;47.50;;;;;;5059607;28;20040;-85
2021/03/31 12:14:41;;;;;;;32.15;18.13;;;18.00;48.50;;;;;;5065524;28;20083;-85
2021/03/31 12:17:07;;;;;;;31.73;18.45;;;18.10;48.60;;;;;;5093585;28;20062;-85
2021/03/31 12:19:33;;;;;;;31.52;17.80;;;18.10;48.40;;;;;;5069128;28;20123;-85
2021/03/31 12:22:19;;;;;;;34.50;19.58;;;18.30;48.20;;;;;;5063146;28;20119;-85
2021/03/31 12:24:45;;;;;;;36.53;18.83;;;18.30;48.00;;;;;;5075793;28;20392;-85
2021/03/31 12:27:14;;;;;;;30.27;17.58;;;18.40;47.00;;;;;;5091850;28;20070;-85
2021/03/31 12:30:02;;;;;;;22.38;14.55;;;18.40;46.60;;;;;;5066578;28;20097;-77
2021/03/31 12:32:48;;;;;;;35.15;16.85;;;18.60;46.00;;;;;;5059277;28;20109;-76
2021/03/31 12:35:14;;;;;;;24.10;13.27;;;18.60;46.20;;;;;;5068830;28;20064;-76
2021/03/31 12:37:40;;;;;;;18.80;11.68;;;18.70;44.90;;;;;;5070244;28;20115;-76
2021/03/31 12:40:08;;;;;;;23.83;13.32;;;18.70;44.20;;;;;;5089025;28;20036;-76
2021/03/31 12:42:34;;;;;;;29.55;14.85;;;18.80;43.20;;;;;;5087841;28;20379;-76
2021/03/31 12:44:59;;;;;;;23.08;13.65;;;19.00;42.40;;;;;;5088621;28;20052;-77
2021/03/31 12:47:47;;;;;;;23.15;13.38;;;19.00;41.90;;;;;;5073035;28;20060;-76
2021/03/31 12:50:36;;;;;;;26.25;15.18;;;19.20;40.80;;;;;;5060222;28;20048;-72
2021/03/31 12:53:16;;;;;;;30.92;16.83;;;19.20;41.90;;;;;;5086835;28;20047;-71
2021/03/31 12:55:44;;;;;;;32.42;18.05;;;19.20;42.90;;;;;;5067012;28;20049;-72
2021/03/31 12:58:14;;;;;;;34.85;20.05;;;19.20;44.30;;;;;;5067873;28;20391;-72
2021/03/31 13:01:06;;;;;;;37.53;21.40;;;19.20;45.50;;;;;;5053109;28;20110;-71
2021/03/31 13:03:32;;;;;;;33.65;22.05;;;19.20;45.70;;;;;;5066038;28;20040;-72
2021/03/31 13:06:20;;;;;;;41.30;21.27;;;19.20;45.50;;;;;;5051918;28;20040;-72
2021/03/31 13:08:50;;;;;;;32.47;20.40;;;19.20;45.60;;;;;;5065662;28;20087;-72
2021/03/31 13:11:36;;;;;;;33.63;20.38;;;19.20;46.00;;;;;;5065471;28;20049;-71
2021/03/31 13:16:50;;;;;;;36.85;20.85;;;19.30;46.10;;;;;;5067222;28;20040;-72
2021/03/31 13:27:04;;;;;;;35.08;20.67;;;19.40;47.20;;;;;;5073639;28;20033;-76
2021/03/31 13:35:06;;;;;;;33.88;21.60;;;19.50;46.00;;;;;;5047553;28;20061;-73
2021/03/31 13:37:38;;;;;;;31.17;18.63;;;19.50;46.70;;;;;;5058297;28;20036;-73